Time;durP1;ratioP1;P1;durP2;ratioP2;P2;SDS_P1;SDS_P2;PMS_P1;PMS_P2;Temp;Humidity;BMP_temperature;BMP_pressure;BME280_temperature;BME280_humidity;BME280_pressure;Samples;Min_cycle;Max_cycle;Signal;HPM_P1;HPM_P2
2021/07/15 00:00:16;;;;;;;17.48;13.52;;;;;;;;;;5099770;28;20024;-78
2021/07/15 00:02:42;;;;;;;20.42;13.80;;;;;;;;;;5099162;28;20313;-78
2021/07/15 00:05:11;;;;;;;19.20;14.45;;;;;;;;;;5099221;28;20413;-78
2021/07/15 00:07:37;;;;;;;22.15;15.10;;;;;;;;;;5099423;28;20107;-78
2021/07/15 00:10:07;;;;;;;23.65;14.95;;;;;;;;;;5099246;28;20031;-78
2021/07/15 00:12:33;;;;;;;17.88;14.57;;;;;;;;;;5099004;28;20024;-78
2021/07/15 00:15:01;;;;;;;22.25;15.32;;;;;;;;;;5099306;28;20079;-78
2021/07/15 00:17:27;;;;;;;22.92;14.75;;;;;;;;;;5099301;28;20073;-78
2021/07/15 00:19:53;;;;;;;27.05;16.95;;;;;;;;;;5099280;28;20086;-78
2021/07/15 00:22:19;;;;;;;20.45;15.60;;;;;;;;;;5099054;28;20070;-78
2021/07/15 00:24:45;;;;;;;22.23;16.27;;;;;;;;;;5099064;28;20027;-78
2021/07/15 00:27:11;;;;;;;24.00;16.73;;;;;;;;;;5099007;28;20054;-78
2021/07/15 00:29:37;;;;;;;19.30;15.80;;;;;;;;;;5097902;28;20028;-78
2021/07/15 00:32:03;;;;;;;28.02;17.58;;;;;;;;;;5098806;28;20020;-78
2021/07/15 00:34:29;;;;;;;22.63;16.88;;;;;;;;;;5098946;28;20028;-78
2021/07/15 00:36:55;;;;;;;23.13;17.20;;;;;;;;;;5097916;28;20032;-78
2021/07/15 00:39:22;;;;;;;22.67;16.83;;;;;;;;;;5098823;28;20028;-78
2021/07/15 00:41:48;;;;;;;25.73;17.58;;;;;;;;;;5098731;28;20028;-78
2021/07/15 00:44:14;;;;;;;26.30;17.38;;;;;;;;;;5098542;28;20044;-78
2021/07/15 00:46:40;;;;;;;21.30;16.42;;;;;;;;;;5098506;28;20087;-78
2021/07/15 00:49:06;;;;;;;22.02;16.42;;;;;;;;;;5098776;28;20111;-78
2021/07/15 00:51:32;;;;;;;23.05;17.05;;;;;;;;;;5098568;28;20020;-79
2021/07/15 00:53:59;;;;;;;24.05;16.60;;;;;;;;;;5098606;28;20024;-79
2021/07/15 00:56:26;;;;;;;25.50;18.17;;;;;;;;;;5098494;28;20050;-79
2021/07/15 00:58:52;;;;;;;21.00;17.70;;;;;;;;;;5098339;28;20352;-79
2021/07/15 01:01:18;;;;;;;25.48;18.40;;;;;;;;;;5097352;28;20122;-78
2021/07/15 01:03:45;;;;;;;26.38;18.40;;;;;;;;;;5098160;28;20030;-78
2021/07/15 01:06:11;;;;;;;24.25;17.90;;;;;;;;;;5097660;28;20024;-78
2021/07/15 01:08:37;;;;;;;22.20;17.67;;;;;;;;;;5098000;28;20306;-78
2021/07/15 01:11:08;;;;;;;22.80;17.33;;;;;;;;;;5097727;28;20287;-79
2021/07/15 01:13:49;;;;;;;22.98;17.00;;;;;;;;;;5097894;28;20338;-79
2021/07/15 01:16:21;;;;;;;26.23;17.70;;;;;;;;;;5098283;28;20343;-79
2021/07/15 01:19:02;;;;;;;26.00;16.80;;;;;;;;;;5097746;28;20273;-78
2021/07/15 01:22:01;;;;;;;22.17;17.13;;;;;;;;;;5098027;28;20024;-78
2021/07/15 01:24:30;;;;;;;22.63;16.33;;;;;;;;;;5055632;28;20078;-78
2021/07/15 01:26:59;;;;;;;25.38;16.52;;;;;;;;;;5055675;28;20039;-78
2021/07/15 01:29:34;;;;;;;26.58;15.70;;;;;;;;;;5055600;28;20021;-78
2021/07/15 01:32:02;;;;;;;26.45;16.63;;;;;;;;;;5055799;28;20047;-78
2021/07/15 01:34:28;;;;;;;25.15;16.35;;;;;;;;;;5055536;28;20032;-78
2021/07/15 01:36:55;;;;;;;30.02;16.00;;;;;;;;;;5055376;28;20056;-78
2021/07/15 01:39:24;;;;;;;22.17;15.05;;;;;;;;;;5055493;28;20044;-78
2021/07/15 01:41:53;;;;;;;25.42;15.77;;;;;;;;;;5055402;28;20099;-78
2021/07/15 01:44:23;;;;;;;25.60;15.43;;;;;;;;;;5038316;28;20067;-78
2021/07/15 01:46:49;;;;;;;24.67;15.18;;;;;;;;;;5055310;28;20044;-78
2021/07/15 01:49:16;;;;;;;22.50;14.50;;;;;;;;;;5055386;28;20040;-78
2021/07/15 01:51:42;;;;;;;25.13;15.45;;;;;;;;;;5038692;28;20132;-78
2021/07/15 01:54:09;;;;;;;26.58;15.25;;;;;;;;;;5055163;28;20033;-78
2021/07/15 01:56:36;;;;;;;24.15;14.90;;;;;;;;;;5055030;28;20035;-78
2021/07/15 01:59:03;;;;;;;25.85;15.13;;;;;;;;;;5043199;28;20044;-77
2021/07/15 02:01:29;;;;;;;25.88;14.18;;;;;;;;;;5097395;28;20016;-77
2021/07/15 02:03:57;;;;;;;27.27;14.18;;;;;;;;;;5097433;28;20016;-78
2021/07/15 02:06:24;;;;;;;25.92;14.05;;;;;;;;;;5097228;28;20030;-78
2021/07/15 02:08:51;;;;;;;24.50;14.27;;;;;;;;;;5096192;28;20313;-79
2021/07/15 02:11:17;;;;;;;26.02;14.63;;;;;;;;;;5097107;28;20023;-79
2021/07/15 02:13:44;;;;;;;24.30;13.75;;;;;;;;;;5096878;28;20044;-79
2021/07/15 02:16:11;;;;;;;28.88;14.38;;;;;;;;;;5096223;28;20032;-79
2021/07/15 02:18:38;;;;;;;25.00;14.70;;;;;;;;;;5097103;28;20425;-79
2021/07/15 02:21:04;;;;;;;22.00;13.38;;;;;;;;;;5097028;28;20070;-78
2021/07/15 02:23:31;;;;;;;25.02;13.50;;;;;;;;;;5097240;28;20394;-79
2021/07/15 02:25:58;;;;;;;32.33;13.57;;;;;;;;;;5097269;28;20356;-79
2021/07/15 02:28:25;;;;;;;28.63;13.63;;;;;;;;;;5097143;28;20028;-79
2021/07/15 02:30:53;;;;;;;27.25;12.40;;;;;;;;;;5097049;28;20377;-78
2021/07/15 02:33:23;;;;;;;20.48;13.13;;;;;;;;;;5097108;28;20437;-78
2021/07/15 02:35:50;;;;;;;28.02;14.10;;;;;;;;;;5096720;28;20412;-78
2021/07/15 02:38:17;;;;;;;25.52;13.82;;;;;;;;;;5097054;28;20020;-78
2021/07/15 02:40:43;;;;;;;31.80;13.50;;;;;;;;;;5096852;28;20035;-78
2021/07/15 02:43:09;;;;;;;24.52;12.95;;;;;;;;;;5095819;28;20028;-78
2021/07/15 02:45:35;;;;;;;29.50;14.13;;;;;;;;;;5096811;28;20118;-78
2021/07/15 02:48:01;;;;;;;23.45;13.45;;;;;;;;;;5096929;28;20028;-78
2021/07/15 02:50:28;;;;;;;24.33;13.98;;;;;;;;;;5096751;28;20070;-78
2021/07/15 02:52:55;;;;;;;23.77;13.80;;;;;;;;;;5095736;28;20349;-78
2021/07/15 02:55:22;;;;;;;27.48;13.88;;;;;;;;;;5096664;28;20028;-77
2021/07/15 02:58:03;;;;;;;26.35;13.35;;;;;;;;;;5096820;28;20394;-77
2021/07/15 03:00:35;;;;;;;27.58;13.65;;;;;;;;;;5096773;28;20020;-77
2021/07/15 03:03:03;;;;;;;23.13;13.05;;;;;;;;;;5096827;28;20025;-78
2021/07/15 03:05:38;;;;;;;28.52;13.55;;;;;;;;;;5096596;28;20330;-77
2021/07/15 03:08:08;;;;;;;23.77;13.82;;;;;;;;;;5095618;28;20035;-77
2021/07/15 03:10:35;;;;;;;26.60;13.57;;;;;;;;;;5095687;28;20039;-77
2021/07/15 03:13:09;;;;;;;22.48;12.75;;;;;;;;;;5096434;28;20040;-78
2021/07/15 03:15:36;;;;;;;27.15;13.43;;;;;;;;;;5096527;28;20025;-79
2021/07/15 03:18:04;;;;;;;27.73;14.70;;;;;;;;;;5096384;28;20040;-79
2021/07/15 03:20:32;;;;;;;28.58;13.40;;;;;;;;;;5096236;28;20103;-78
2021/07/15 03:23:00;;;;;;;27.98;14.73;;;;;;;;;;5096672;28;20043;-79
2021/07/15 03:25:28;;;;;;;25.00;14.13;;;;;;;;;;5096601;28;20086;-79
2021/07/15 03:27:56;;;;;;;27.08;14.20;;;;;;;;;;5097498;28;20028;-79
2021/07/15 03:30:22;;;;;;;26.73;13.63;;;;;;;;;;5099003;28;20028;-79
2021/07/15 03:32:49;;;;;;;23.00;14.40;;;;;;;;;;5100064;28;20074;-79
2021/07/15 03:35:16;;;;;;;24.40;14.52;;;;;;;;;;5100136;28;20024;-78
2021/07/15 03:37:46;;;;;;;30.02;15.93;;;;;;;;;;5095137;28;20104;-79
2021/07/15 03:40:16;;;;;;;31.38;16.13;;;;;;;;;;5098015;28;20037;-79
2021/07/15 03:42:43;;;;;;;29.52;15.40;;;;;;;;;;5099288;28;20031;-79
2021/07/15 03:45:09;;;;;;;23.05;15.43;;;;;;;;;;5097833;28;20107;-79
2021/07/15 03:47:37;;;;;;;28.73;16.10;;;;;;;;;;5100032;28;20343;-79
2021/07/15 03:50:03;;;;;;;26.63;16.33;;;;;;;;;;5098924;28;20043;-78
2021/07/15 03:52:29;;;;;;;23.92;15.50;;;;;;;;;;5099848;28;20028;-78
2021/07/15 04:05:47;;;;;;;23.73;13.20;;;;;;;;;;5135619;27;20356;-77
2021/07/15 04:08:14;;;;;;;23.00;12.18;;;;;;;;;;5116826;28;20066;-77
2021/07/15 04:10:40;;;;;;;21.30;11.85;;;;;;;;;;5117008;28;20031;-77
2021/07/15 04:13:07;;;;;;;21.88;10.32;;;;;;;;;;5135192;28;20015;-77
2021/07/15 04:15:33;;;;;;;18.63;10.15;;;;;;;;;;5117001;28;20030;-78
2021/07/15 04:18:01;;;;;;;17.77;9.98;;;;;;;;;;5135094;28;20023;-77
2021/07/15 04:20:28;;;;;;;19.63;9.25;;;;;;;;;;5135126;28;20039;-77
2021/07/15 04:22:55;;;;;;;14.27;8.45;;;;;;;;;;5116398;28;20023;-77
2021/07/15 04:25:23;;;;;;;14.65;7.90;;;;;;;;;;5116757;28;20027;-78
2021/07/15 04:27:50;;;;;;;15.18;7.57;;;;;;;;;;5116717;28;20023;-77
2021/07/15 04:30:17;;;;;;;15.32;7.00;;;;;;;;;;5134983;28;20023;-76
2021/07/15 04:32:43;;;;;;;15.00;6.20;;;;;;;;;;5134862;28;20026;-76
2021/07/15 04:35:11;;;;;;;16.48;6.28;;;;;;;;;;5116583;28;20122;-76
2021/07/15 04:37:38;;;;;;;12.93;7.05;;;;;;;;;;5134734;28;20023;-76
2021/07/15 04:40:06;;;;;;;15.07;6.65;;;;;;;;;;5134832;28;20026;-76
2021/07/15 04:42:32;;;;;;;12.13;6.53;;;;;;;;;;5134824;28;20020;-76
2021/07/15 04:44:58;;;;;;;12.80;7.05;;;;;;;;;;5134627;28;20065;-76
2021/07/15 04:47:25;;;;;;;15.20;7.15;;;;;;;;;;5134574;28;20027;-77
2021/07/15 04:49:51;;;;;;;12.98;6.80;;;;;;;;;;5134454;28;20016;-77
2021/07/15 04:52:18;;;;;;;15.68;7.28;;;;;;;;;;5134377;28;20170;-78
2021/07/15 04:54:44;;;;;;;14.07;6.75;;;;;;;;;;5134336;28;20401;-76
2021/07/15 04:57:12;;;;;;;15.23;6.65;;;;;;;;;;5134202;28;20023;-77
2021/07/15 04:59:39;;;;;;;15.55;6.97;;;;;;;;;;5134377;28;20030;-77
2021/07/15 05:05:13;;;;;;;11.48;6.65;;;;;;;;;;5128943;28;20116;-77
2021/07/15 05:07:40;;;;;;;17.73;6.50;;;;;;;;;;5120469;28;20476;-77
2021/07/15 05:10:08;;;;;;;12.30;6.35;;;;;;;;;;5120301;28;20248;-76
2021/07/15 05:12:34;;;;;;;9.40;5.97;;;;;;;;;;5120248;28;20028;-77
2021/07/15 05:15:04;;;;;;;17.42;6.82;;;;;;;;;;5120223;28;20055;-77
2021/07/15 05:17:31;;;;;;;14.57;6.28;;;;;;;;;;5120036;28;20413;-77
2021/07/15 05:19:57;;;;;;;13.30;6.47;;;;;;;;;;5120197;28;20115;-77
2021/07/15 05:22:24;;;;;;;15.55;6.18;;;;;;;;;;5119103;28;20114;-77
2021/07/15 05:24:50;;;;;;;13.90;5.80;;;;;;;;;;5119956;28;20027;-77
2021/07/15 05:27:16;;;;;;;11.68;4.57;;;;;;;;;;5118977;28;20476;-77
2021/07/15 05:29:42;;;;;;;9.88;4.50;;;;;;;;;;5119961;28;20106;-77
2021/07/15 05:32:08;;;;;;;7.65;3.88;;;;;;;;;;5119972;28;20023;-77
2021/07/15 05:34:34;;;;;;;8.27;3.90;;;;;;;;;;5119779;28;20028;-77
2021/07/15 05:37:01;;;;;;;10.52;4.03;;;;;;;;;;5118875;28;20028;-77
2021/07/15 05:39:28;;;;;;;11.15;4.07;;;;;;;;;;5119747;28;20023;-77
2021/07/15 05:41:54;;;;;;;11.07;3.38;;;;;;;;;;5119860;28;20028;-76
2021/07/15 05:44:20;;;;;;;10.13;3.88;;;;;;;;;;5119575;28;20046;-76
2021/07/15 05:46:46;;;;;;;15.35;4.07;;;;;;;;;;5119660;28;20098;-76
2021/07/15 05:49:12;;;;;;;7.50;3.13;;;;;;;;;;5119532;28;20117;-77
2021/07/15 05:51:38;;;;;;;9.48;3.22;;;;;;;;;;5119532;28;20051;-77
2021/07/15 05:54:05;;;;;;;8.15;3.20;;;;;;;;;;5119454;28;20024;-76
2021/07/15 05:56:31;;;;;;;8.30;3.17;;;;;;;;;;5119530;28;20366;-77
2021/07/15 05:58:57;;;;;;;7.90;2.45;;;;;;;;;;5119696;28;20083;-77
2021/07/15 06:01:23;;;;;;;7.80;2.67;;;;;;;;;;5119069;28;20020;-77
2021/07/15 06:03:49;;;;;;;7.22;2.90;;;;;;;;;;5118775;28;20050;-78
2021/07/15 06:06:15;;;;;;;7.65;2.83;;;;;;;;;;5119438;28;20027;-78
2021/07/15 06:08:41;;;;;;;12.13;2.70;;;;;;;;;;5119348;28;20051;-80
2021/07/15 06:11:07;;;;;;;11.60;2.92;;;;;;;;;;5119316;28;20016;-87
2021/07/15 06:13:33;;;;;;;10.10;2.97;;;;;;;;;;5116034;28;20340;-73
2021/07/15 06:15:59;;;;;;;7.57;2.70;;;;;;;;;;5099740;28;20424;-74
2021/07/15 06:18:25;;;;;;;10.15;3.05;;;;;;;;;;5097687;28;20421;-74
2021/07/15 06:20:51;;;;;;;5.50;2.58;;;;;;;;;;5098818;28;20034;-74
2021/07/15 06:23:17;;;;;;;10.05;2.70;;;;;;;;;;5098683;28;20020;-74
2021/07/15 06:25:43;;;;;;;9.15;3.00;;;;;;;;;;5097500;28;20031;-73
2021/07/15 06:28:09;;;;;;;9.93;2.60;;;;;;;;;;5098528;28;20024;-74
2021/07/15 06:30:35;;;;;;;13.35;3.17;;;;;;;;;;5097109;28;20028;-74
2021/07/15 06:33:01;;;;;;;10.88;3.05;;;;;;;;;;5098239;28;20020;-73
2021/07/15 06:35:28;;;;;;;10.63;2.50;;;;;;;;;;5098212;28;20020;-74
2021/07/15 06:37:54;;;;;;;9.70;2.60;;;;;;;;;;5098218;28;20410;-73
2021/07/15 06:40:21;;;;;;;9.43;2.83;;;;;;;;;;5098318;28;20024;-73
2021/07/15 06:42:49;;;;;;;7.43;2.53;;;;;;;;;;5098073;28;20020;-73
2021/07/15 06:45:15;;;;;;;9.20;2.40;;;;;;;;;;5098033;28;20035;-73
2021/07/15 06:47:42;;;;;;;8.32;2.45;;;;;;;;;;5098043;28;20020;-73
2021/07/15 06:50:09;;;;;;;8.18;2.85;;;;;;;;;;5097961;28;20027;-73
2021/07/15 06:52:35;;;;;;;9.02;2.60;;;;;;;;;;5097985;28;20031;-73
2021/07/15 06:55:02;;;;;;;16.88;3.97;;;;;;;;;;5097968;28;20070;-74
2021/07/15 06:57:29;;;;;;;7.32;2.50;;;;;;;;;;5097877;28;20030;-73
2021/07/15 06:59:55;;;;;;;8.98;2.35;;;;;;;;;;5097843;28;20077;-73
2021/07/15 07:02:21;;;;;;;8.77;2.35;;;;;;;;;;5096543;28;20032;-73
2021/07/15 07:04:47;;;;;;;7.53;2.15;;;;;;;;;;5097395;28;20044;-74
2021/07/15 07:07:13;;;;;;;5.28;2.25;;;;;;;;;;5097445;28;20344;-73
2021/07/15 07:09:39;;;;;;;8.63;2.55;;;;;;;;;;5097799;28;20042;-73
2021/07/15 07:12:06;;;;;;;7.78;2.45;;;;;;;;;;5097754;28;20033;-73
2021/07/15 07:14:32;;;;;;;9.50;2.97;;;;;;;;;;5097642;28;20429;-73
2021/07/15 07:16:58;;;;;;;6.97;2.70;;;;;;;;;;5097727;28;20028;-73
2021/07/15 07:19:24;;;;;;;6.45;2.00;;;;;;;;;;5097418;28;20158;-73
2021/07/15 07:21:50;;;;;;;8.93;2.35;;;;;;;;;;5097332;28;20420;-74
2021/07/15 07:36:41;;;;;;;4.80;1.60;;;;;;;;;;5114984;27;20365;-75
2021/07/15 07:39:09;;;;;;;6.63;1.85;;;;;;;;;;5115069;28;20027;-75
2021/07/15 07:41:35;;;;;;;5.60;1.60;;;;;;;;;;5114501;28;20030;-75
2021/07/15 07:44:01;;;;;;;8.35;2.03;;;;;;;;;;5113211;28;20031;-75
2021/07/15 07:46:27;;;;;;;5.75;1.63;;;;;;;;;;5114592;28;20055;-75
2021/07/15 07:48:53;;;;;;;18.40;2.33;;;;;;;;;;5113364;28;20341;-75
2021/07/15 07:51:20;;;;;;;7.43;1.92;;;;;;;;;;5114555;28;20099;-75
2021/07/15 07:53:46;;;;;;;6.00;1.52;;;;;;;;;;5113407;28;20305;-75
2021/07/15 07:56:13;;;;;;;8.77;2.20;;;;;;;;;;5114346;28;20313;-75
2021/07/15 07:58:39;;;;;;;9.73;1.75;;;;;;;;;;5114042;28;20020;-75
2021/07/15 08:01:05;;;;;;;7.68;2.03;;;;;;;;;;5114430;28;20030;-75
2021/07/15 08:03:31;;;;;;;6.53;1.80;;;;;;;;;;5114228;28;20020;-76
2021/07/15 08:05:57;;;;;;;4.93;1.63;;;;;;;;;;5114241;28;20024;-75
2021/07/15 08:08:23;;;;;;;5.88;1.60;;;;;;;;;;5115003;28;20027;-75
2021/07/15 08:10:50;;;;;;;4.93;1.63;;;;;;;;;;5114793;28;20020;-75
2021/07/15 08:13:16;;;;;;;3.85;1.65;;;;;;;;;;5114497;28;20023;-75
2021/07/15 08:15:42;;;;;;;6.43;2.22;;;;;;;;;;5114635;28;20043;-76
2021/07/15 08:18:08;;;;;;;5.78;1.77;;;;;;;;;;5114223;28;20065;-76
2021/07/15 08:20:34;;;;;;;6.95;1.77;;;;;;;;;;5113852;28;20483;-76
2021/07/15 08:23:01;;;;;;;10.63;1.80;;;;;;;;;;5114134;28;20076;-75
2021/07/15 08:25:27;;;;;;;7.25;1.40;;;;;;;;;;5112183;28;20051;-75
2021/07/15 08:27:53;;;;;;;9.68;1.70;;;;;;;;;;5114033;28;20024;-75
2021/07/15 08:30:19;;;;;;;7.00;1.85;;;;;;;;;;5113869;28;20020;-75
2021/07/15 08:32:45;;;;;;;6.85;1.52;;;;;;;;;;5113643;28;20026;-75
2021/07/15 08:35:11;;;;;;;6.50;1.55;;;;;;;;;;5113551;28;20052;-75
2021/07/15 08:37:38;;;;;;;5.38;1.55;;;;;;;;;;5100477;28;20024;-74
2021/07/15 08:40:05;;;;;;;7.68;2.03;;;;;;;;;;5100117;28;20059;-75
2021/07/15 08:42:31;;;;;;;8.48;1.50;;;;;;;;;;5099896;28;20054;-75
2021/07/15 08:45:00;;;;;;;7.93;1.88;;;;;;;;;;5100119;28;20024;-74
2021/07/15 08:47:26;;;;;;;5.75;1.67;;;;;;;;;;5100021;28;20070;-74
2021/07/15 08:49:52;;;;;;;7.43;1.65;;;;;;;;;;5099929;28;20024;-74
2021/07/15 08:52:18;;;;;;;6.30;1.70;;;;;;;;;;5099884;28;20023;-74
2021/07/15 08:57:40;;;;;;;8.90;2.58;;;;;;;;;;5077644;28;20094;-75
2021/07/15 09:00:10;;;;;;;4.53;2.00;;;;;;;;;;5077741;28;20032;-74
2021/07/15 09:02:36;;;;;;;6.85;1.77;;;;;;;;;;5077494;28;20032;-75
2021/07/15 09:05:04;;;;;;;13.52;2.25;;;;;;;;;;5077219;28;20111;-75
2021/07/15 09:07:31;;;;;;;7.90;1.75;;;;;;;;;;5077267;28;20324;-74
2021/07/15 09:09:57;;;;;;;10.15;1.80;;;;;;;;;;5077296;28;20476;-75
2021/07/15 09:12:23;;;;;;;8.32;1.77;;;;;;;;;;5077325;28;20040;-74
2021/07/15 09:14:53;;;;;;;10.40;1.90;;;;;;;;;;5077293;28;20032;-74
2021/07/15 09:17:29;;;;;;;5.03;2.25;;;;;;;;;;5077172;28;20338;-75
2021/07/15 09:19:55;;;;;;;4.45;1.67;;;;;;;;;;5077352;28;20033;-74
2021/07/15 09:22:21;;;;;;;5.68;1.95;;;;;;;;;;5076773;28;20035;-75
2021/07/15 09:24:48;;;;;;;8.13;1.90;;;;;;;;;;5076899;28;20036;-75
2021/07/15 09:27:16;;;;;;;6.50;1.77;;;;;;;;;;5076965;28;20111;-74
2021/07/15 09:29:43;;;;;;;5.43;1.50;;;;;;;;;;5077037;28;20036;-75
2021/07/15 09:32:09;;;;;;;7.53;1.60;;;;;;;;;;5060244;28;20021;-75
2021/07/15 09:34:36;;;;;;;3.67;1.58;;;;;;;;;;5092818;28;20072;-75
2021/07/15 09:37:09;;;;;;;8.55;1.85;;;;;;;;;;5098943;28;20428;-75
2021/07/15 09:39:43;;;;;;;3.85;1.88;;;;;;;;;;5097809;28;20049;-75
2021/07/15 09:42:11;;;;;;;7.72;1.60;;;;;;;;;;5098888;28;20024;-75
2021/07/15 09:44:43;;;;;;;5.75;1.75;;;;;;;;;;5098654;28;20028;-74
2021/07/15 09:47:29;;;;;;;5.80;1.30;;;;;;;;;;5098619;28;20026;-74
2021/07/15 09:49:55;;;;;;;4.47;1.55;;;;;;;;;;5098322;28;20032;-75
2021/07/15 09:52:22;;;;;;;4.65;1.50;;;;;;;;;;5098871;28;20306;-74
2021/07/15 09:54:48;;;;;;;9.85;1.70;;;;;;;;;;5098634;28;20103;-74
2021/07/15 09:57:30;;;;;;;5.65;1.05;;;;;;;;;;5098533;28;20123;-75
2021/07/15 09:59:57;;;;;;;4.68;1.55;;;;;;;;;;5098539;28;20373;-74
2021/07/15 10:02:32;;;;;;;6.72;1.50;;;;;;;;;;5098693;28;20044;-74
2021/07/15 10:04:58;;;;;;;7.85;1.80;;;;;;;;;;5098407;28;20073;-74
2021/07/15 10:07:25;;;;;;;3.50;1.50;;;;;;;;;;5098410;28;20085;-75
2021/07/15 10:09:57;;;;;;;7.78;1.88;;;;;;;;;;5098270;28;20017;-75
2021/07/15 10:12:25;;;;;;;3.83;1.58;;;;;;;;;;5098268;28;20024;-74
2021/07/15 10:14:51;;;;;;;9.90;1.65;;;;;;;;;;5098129;28;20119;-74
2021/07/15 10:17:37;;;;;;;7.53;1.35;;;;;;;;;;5098321;28;20070;-75
2021/07/15 10:20:17;;;;;;;8.57;1.45;;;;;;;;;;5097390;28;20089;-75
2021/07/15 10:22:43;;;;;;;5.50;1.52;;;;;;;;;;5098238;28;20024;-75
2021/07/15 10:25:10;;;;;;;8.10;1.98;;;;;;;;;;5097809;28;20032;-74
2021/07/15 10:27:38;;;;;;;6.47;1.58;;;;;;;;;;5097957;28;20016;-74
2021/07/15 10:30:04;;;;;;;5.28;1.52;;;;;;;;;;5097692;28;20103;-74
2021/07/15 10:32:33;;;;;;;4.90;1.10;;;;;;;;;;5097392;28;20020;-75
2021/07/15 10:34:59;;;;;;;10.13;1.85;;;;;;;;;;5097682;28;20052;-75
2021/07/15 10:37:26;;;;;;;7.53;1.88;;;;;;;;;;5097580;28;20334;-75
2021/07/15 10:39:52;;;;;;;5.90;1.80;;;;;;;;;;5097674;28;20028;-75
2021/07/15 10:42:18;;;;;;;3.53;1.40;;;;;;;;;;5097677;28;20020;-75
2021/07/15 10:44:46;;;;;;;4.30;1.50;;;;;;;;;;5097212;28;20061;-74
2021/07/15 10:47:13;;;;;;;7.35;2.08;;;;;;;;;;5097323;28;20113;-74
2021/07/15 10:49:41;;;;;;;8.30;2.28;;;;;;;;;;5095851;28;20052;-75
2021/07/15 10:52:08;;;;;;;10.15;1.77;;;;;;;;;;5097572;28;20031;-75
2021/07/15 10:54:34;;;;;;;8.70;2.40;;;;;;;;;;5096737;28;20111;-75
2021/07/15 10:57:00;;;;;;;7.82;1.90;;;;;;;;;;5096859;28;20024;-75
2021/07/15 10:59:26;;;;;;;9.70;2.10;;;;;;;;;;5096660;28;20019;-75
2021/07/15 11:01:53;;;;;;;34.42;3.65;;;;;;;;;;5097120;28;20034;-75
2021/07/15 11:04:23;;;;;;;6.07;2.00;;;;;;;;;;5095845;28;20043;-74
2021/07/15 11:06:51;;;;;;;6.10;1.80;;;;;;;;;;5097345;28;20079;-75
2021/07/15 11:09:35;;;;;;;6.05;1.80;;;;;;;;;;5096663;28;20024;-75
2021/07/15 11:12:02;;;;;;;7.65;2.13;;;;;;;;;;5094520;28;20402;-74
2021/07/15 11:14:37;;;;;;;7.00;2.20;;;;;;;;;;5096749;28;20424;-75
2021/07/15 11:17:24;;;;;;;9.23;2.22;;;;;;;;;;5094601;28;20020;-74
2021/07/15 11:20:07;;;;;;;6.13;1.80;;;;;;;;;;5095398;28;20077;-74
2021/07/15 11:22:39;;;;;;;3.65;1.77;;;;;;;;;;5096468;28;20030;-74
2021/07/15 11:25:09;;;;;;;9.85;2.63;;;;;;;;;;5096686;28;20062;-74
2021/07/15 11:27:37;;;;;;;8.10;1.90;;;;;;;;;;5094044;28;20027;-74
2021/07/15 11:30:04;;;;;;;9.18;2.10;;;;;;;;;;5096400;28;20044;-75
2021/07/15 11:32:30;;;;;;;8.32;2.28;;;;;;;;;;5096512;28;20099;-75
2021/07/15 11:34:56;;;;;;;9.98;2.17;;;;;;;;;;5095439;28;20608;-75
2021/07/15 11:37:35;;;;;;;8.70;1.70;;;;;;;;;;5095280;28;20028;-75
2021/07/15 11:40:03;;;;;;;26.25;11.18;;;;;;;;;;5096184;28;20070;-75
2021/07/15 11:42:36;;;;;;;36.55;20.05;;;;;;;;;;5096771;28;20020;-75
2021/07/15 11:45:04;;;;;;;49.70;21.90;;;;;;;;;;5096174;28;20413;-74
2021/07/15 11:47:50;;;;;;;26.35;12.25;;;;;;;;;;5096187;28;20099;-74
2021/07/15 11:50:28;;;;;;;17.63;4.45;;;;;;;;;;5096944;28;20027;-74
2021/07/15 11:53:13;;;;;;;17.02;6.38;;;;;;;;;;5096220;28;20035;-75
2021/07/15 11:55:39;;;;;;;13.15;4.65;;;;;;;;;;5096769;28;20034;-74
2021/07/15 11:58:05;;;;;;;10.27;2.65;;;;;;;;;;5096769;28;20410;-74
2021/07/15 12:00:32;;;;;;;7.03;2.78;;;;;;;;;;5096713;28;20115;-74
2021/07/15 12:02:58;;;;;;;8.38;3.40;;;;;;;;;;5096837;28;20032;-74
2021/07/15 12:05:32;;;;;;;9.88;3.22;;;;;;;;;;5096803;28;20052;-75
2021/07/15 12:08:12;;;;;;;10.63;2.50;;;;;;;;;;5096730;28;20020;-75
2021/07/15 12:10:46;;;;;;;6.68;2.15;;;;;;;;;;5096697;28;20024;-75
2021/07/15 12:13:13;;;;;;;8.60;3.08;;;;;;;;;;5100526;28;20028;-75
2021/07/15 12:15:41;;;;;;;11.52;2.30;;;;;;;;;;5100689;28;20024;-75
2021/07/15 12:18:10;;;;;;;9.65;2.90;;;;;;;;;;5100493;28;20024;-75
2021/07/15 12:20:41;;;;;;;7.07;2.92;;;;;;;;;;5100514;28;20024;-75
2021/07/15 12:23:11;;;;;;;9.63;3.55;;;;;;;;;;5100354;28;20473;-74
2021/07/15 12:25:37;;;;;;;10.57;2.60;;;;;;;;;;5100230;28;20097;-75
2021/07/15 12:28:05;;;;;;;6.28;2.10;;;;;;;;;;5100419;28;20020;-74
2021/07/15 12:30:51;;;;;;;7.03;2.85;;;;;;;;;;5100329;28;20016;-74
2021/07/15 12:33:19;;;;;;;5.97;2.58;;;;;;;;;;5100268;28;20020;-74
2021/07/15 12:35:46;;;;;;;6.22;2.03;;;;;;;;;;5099792;28;20056;-75
2021/07/15 12:38:18;;;;;;;10.55;3.63;;;;;;;;;;5100291;28;20016;-76
2021/07/15 12:40:45;;;;;;;14.98;4.55;;;;;;;;;;5099977;28;20034;-78
2021/07/15 12:43:19;;;;;;;7.10;2.97;;;;;;;;;;5099995;28;20406;-74
2021/07/15 12:45:47;;;;;;;5.25;2.10;;;;;;;;;;5099939;28;20295;-75
2021/07/15 12:48:14;;;;;;;5.85;1.92;;;;;;;;;;5099877;28;20047;-74
2021/07/15 12:50:40;;;;;;;4.68;1.98;;;;;;;;;;5099963;28;20027;-74
2021/07/15 12:53:36;;;;;;;8.77;2.60;;;;;;;;;;5099912;28;20016;-75
2021/07/15 12:56:03;;;;;;;12.10;2.97;;;;;;;;;;5057460;28;20403;-74
2021/07/15 12:58:29;;;;;;;11.07;3.03;;;;;;;;;;5057285;28;20052;-75
2021/07/15 13:01:05;;;;;;;11.27;2.63;;;;;;;;;;5057297;28;20338;-75
2021/07/15 13:03:32;;;;;;;7.15;2.10;;;;;;;;;;5057474;28;20091;-77
2021/07/15 13:05:58;;;;;;;7.57;2.38;;;;;;;;;;5057266;28;20045;-75
2021/07/15 13:08:33;;;;;;;8.95;2.38;;;;;;;;;;5057243;28;20051;-75
2021/07/15 13:16:38;;;;;;;7.50;2.38;;;;;;;;;;5057366;28;20055;-75
2021/07/15 13:19:12;;;;;;;13.13;3.20;;;;;;;;;;5057166;28;20040;-75
2021/07/15 13:21:39;;;;;;;19.42;3.53;;;;;;;;;;5057025;28;20152;-75
2021/07/15 13:24:08;;;;;;;6.25;2.20;;;;;;;;;;5056571;28;20143;-75
2021/07/15 13:26:44;;;;;;;8.60;2.65;;;;;;;;;;5056948;28;20029;-75
2021/07/15 13:29:10;;;;;;;10.68;2.28;;;;;;;;;;5039721;28;20036;-75
2021/07/15 13:31:39;;;;;;;8.80;2.53;;;;;;;;;;5064672;28;20119;-75
2021/07/15 13:34:09;;;;;;;6.63;3.00;;;;;;;;;;5098983;28;20032;-75
2021/07/15 13:36:36;;;;;;;11.90;2.92;;;;;;;;;;5098632;28;20048;-75
2021/07/15 13:39:02;;;;;;;11.85;2.67;;;;;;;;;;5099129;28;20024;-75
2021/07/15 13:41:32;;;;;;;7.70;2.72;;;;;;;;;;5098924;28;20032;-76
2021/07/15 13:44:07;;;;;;;7.65;2.20;;;;;;;;;;5098767;28;20024;-75
2021/07/15 13:46:34;;;;;;;9.68;2.70;;;;;;;;;;5097663;28;20028;-75
2021/07/15 13:49:00;;;;;;;7.07;2.30;;;;;;;;;;5098363;28;20062;-75
2021/07/15 13:51:26;;;;;;;8.85;2.80;;;;;;;;;;5098883;28;20016;-75
2021/07/15 13:53:53;;;;;;;7.97;2.50;;;;;;;;;;5098530;28;20340;-75
2021/07/15 13:56:22;;;;;;;6.47;2.53;;;;;;;;;;5098560;28;20058;-75
2021/07/15 13:58:49;;;;;;;8.27;2.70;;;;;;;;;;5098607;28;20020;-75
2021/07/15 14:01:29;;;;;;;7.47;2.22;;;;;;;;;;5098460;28;20024;-79
2021/07/15 14:03:55;;;;;;;7.60;3.22;;;;;;;;;;5098323;28;20031;-79
2021/07/15 14:06:22;;;;;;;10.48;3.03;;;;;;;;;;5097509;28;20032;-79
2021/07/15 14:09:01;;;;;;;9.88;2.90;;;;;;;;;;5098485;28;20028;-82
2021/07/15 14:11:29;;;;;;;8.10;3.13;;;;;;;;;;5098452;28;20040;-81
2021/07/15 14:13:59;;;;;;;10.70;3.00;;;;;;;;;;5098282;28;20337;-80
2021/07/15 14:16:28;;;;;;;7.55;2.75;;;;;;;;;;5098421;28;20334;-81
2021/07/15 14:19:02;;;;;;;15.90;2.60;;;;;;;;;;5098349;28;20085;-81
2021/07/15 14:21:30;;;;;;;14.35;3.08;;;;;;;;;;5097147;28;20073;-81
2021/07/15 14:23:56;;;;;;;9.57;2.65;;;;;;;;;;5098130;28;20073;-81
2021/07/15 14:26:22;;;;;;;9.50;3.38;;;;;;;;;;5097808;28;20042;-81
2021/07/15 14:28:48;;;;;;;9.10;2.90;;;;;;;;;;5097139;28;20422;-81
2021/07/15 14:31:14;;;;;;;11.85;2.90;;;;;;;;;;5096800;28;20344;-81
2021/07/15 14:33:41;;;;;;;12.40;2.60;;;;;;;;;;5097683;28;20091;-81
2021/07/15 14:36:07;;;;;;;8.52;2.70;;;;;;;;;;5097647;28;20074;-81
2021/07/15 14:38:33;;;;;;;9.40;2.60;;;;;;;;;;5097915;28;20024;-81
2021/07/15 14:40:59;;;;;;;4.90;2.42;;;;;;;;;;5097032;28;20036;-81
2021/07/15 14:43:25;;;;;;;8.50;3.28;;;;;;;;;;5097776;28;20050;-81
2021/07/15 14:45:53;;;;;;;8.05;2.55;;;;;;;;;;5097584;28;20024;-81
2021/07/15 14:48:19;;;;;;;6.70;2.78;;;;;;;;;;5097817;28;20032;-81
2021/07/15 14:50:46;;;;;;;9.63;3.10;;;;;;;;;;5097514;28;20428;-81
2021/07/15 14:53:13;;;;;;;10.13;4.03;;;;;;;;;;5097715;28;20044;-81
2021/07/15 14:55:39;;;;;;;7.03;2.85;;;;;;;;;;5097655;28;20399;-81
2021/07/15 14:58:05;;;;;;;7.80;3.25;;;;;;;;;;5097573;28;20024;-81
2021/07/15 15:00:31;;;;;;;14.48;3.60;;;;;;;;;;5097490;28;20048;-81
2021/07/15 15:02:57;;;;;;;14.85;3.72;;;;;;;;;;5097450;28;20035;-81
2021/07/15 15:05:23;;;;;;;13.35;3.60;;;;;;;;;;5097562;28;20032;-81
2021/07/15 15:07:51;;;;;;;9.05;3.58;;;;;;;;;;5097403;28;20020;-81
2021/07/15 15:10:17;;;;;;;15.18;4.13;;;;;;;;;;5097450;28;20024;-81
2021/07/15 15:12:43;;;;;;;13.60;3.78;;;;;;;;;;5097275;28;20020;-81